Time;durP1;ratioP1;P1;durP2;ratioP2;P2;SDS_P1;SDS_P2;PMS_P1;PMS_P2;Temp;Humidity;BMP_temperature;BMP_pressure;BME280_temperature;BME280_humidity;BME280_pressure;Samples;Min_cycle;Max_cycle;Signal;HPM_P1;HPM_P2
2021/11/05 00:00:38;;;;;;;1.77;1.27;;;;;;;6.24;nan;99727.50;4936144;29;20497;-83
2021/11/05 00:03:05;;;;;;;2.20;1.30;;;;;;;6.20;nan;99739.78;4951082;28;20027;-83
2021/11/05 00:05:32;;;;;;;3.30;2.17;;;;;;;6.22;nan;99745.88;4930070;28;20038;-84
2021/11/05 00:08:03;;;;;;;2.93;2.07;;;;;;;6.18;nan;99752.06;4943563;28;20058;-84
2021/11/05 00:10:30;;;;;;;2.27;1.50;;;;;;;6.19;nan;99753.78;4919171;29;20039;-84
2021/11/05 00:12:57;;;;;;;2.10;1.40;;;;;;;6.18;nan;99762.56;4953458;28;20037;-84
2021/11/05 00:15:24;;;;;;;1.50;1.10;;;;;;;6.13;nan;99762.63;4941570;28;20481;-83
2021/11/05 00:17:54;;;;;;;2.43;1.20;;;;;;;6.09;nan;99774.06;4930680;28;20037;-85
2021/11/05 00:20:21;;;;;;;2.23;1.13;;;;;;;6.15;nan;99767.88;4950171;28;20049;-84
2021/11/05 00:22:48;;;;;;;1.87;1.30;;;;;;;6.09;nan;99789.81;4940141;28;20045;-85
2021/11/05 00:25:15;;;;;;;2.20;1.30;;;;;;;6.16;nan;99795.81;4926704;29;20039;-86
2021/11/05 00:27:43;;;;;;;2.37;1.20;;;;;;;6.11;nan;99801.13;4924812;28;20049;-85
2021/11/05 00:30:13;;;;;;;2.30;1.57;;;;;;;6.10;nan;99803.78;4936317;29;20035;-83
2021/11/05 00:32:41;;;;;;;2.40;1.53;;;;;;;6.07;nan;99820.44;4954760;28;20506;-83
2021/11/05 00:35:10;;;;;;;2.47;1.20;;;;;;;6.09;nan;99818.66;4946339;28;20051;-85
2021/11/05 00:37:38;;;;;;;2.20;1.10;;;;;;;6.11;nan;99823.84;4942419;28;20039;-85
2021/11/05 00:40:06;;;;;;;2.67;1.30;;;;;;;6.15;nan;99830.81;4938114;28;20100;-84
2021/11/05 00:42:33;;;;;;;3.13;1.23;;;;;;;6.14;nan;99834.31;4928124;29;20489;-85
2021/11/05 00:45:01;;;;;;;2.30;1.03;;;;;;;6.05;nan;99837.06;4908246;28;20055;-84
2021/11/05 00:47:28;;;;;;;3.47;1.60;;;;;;;6.11;nan;99843.09;4962287;28;20034;-86
2021/11/05 00:49:54;;;;;;;3.00;1.40;;;;;;;6.12;nan;99841.31;4955018;28;20042;-85
2021/11/05 00:52:22;;;;;;;2.43;1.30;;;;;;;6.13;nan;99849.16;4945898;28;20038;-87
2021/11/05 00:54:48;;;;;;;2.03;1.40;;;;;;;6.13;nan;99867.53;4954959;28;20050;-85
2021/11/05 00:57:15;;;;;;;1.60;1.27;;;;;;;6.12;nan;99860.53;4949019;28;20043;-84
2021/11/05 00:59:42;;;;;;;3.33;1.63;;;;;;;6.14;nan;99876.28;4946562;29;20049;-85
2021/11/05 01:02:09;;;;;;;3.27;1.40;;;;;;;6.15;nan;99878.00;4938397;28;20049;-84
2021/11/05 01:04:37;;;;;;;2.67;1.40;;;;;;;6.17;nan;99881.47;4937374;29;20047;-85
2021/11/05 01:07:04;;;;;;;3.37;1.57;;;;;;;6.19;nan;99880.53;4939186;28;20333;-83
2021/11/05 01:09:31;;;;;;;2.33;1.50;;;;;;;6.19;nan;99884.94;4963094;28;20038;-84
2021/11/05 01:11:58;;;;;;;1.97;1.30;;;;;;;6.13;nan;99887.63;4917738;28;20416;-85
2021/11/05 01:14:25;;;;;;;2.27;1.70;;;;;;;6.14;nan;99887.63;4936413;28;20043;-85
2021/11/05 01:16:52;;;;;;;2.50;1.40;;;;;;;6.19;nan;99896.28;4959949;28;20038;-86
2021/11/05 01:19:19;;;;;;;2.47;1.40;;;;;;;6.14;nan;99894.66;4929238;28;20043;-84
2021/11/05 01:21:46;;;;;;;3.83;1.50;;;;;;;6.24;nan;99904.09;4956984;28;20053;-87
2021/11/05 01:24:13;;;;;;;2.37;1.60;;;;;;;6.18;nan;99906.81;4921823;28;20089;-84
2021/11/05 01:26:41;;;;;;;2.93;1.70;;;;;;;6.17;nan;99905.06;4929918;29;20053;-84
2021/11/05 01:29:09;;;;;;;3.20;1.80;;;;;;;6.19;nan;99911.16;4938362;28;20039;-85
2021/11/05 01:31:36;;;;;;;3.67;1.70;;;;;;;6.20;nan;99915.50;4937681;28;20050;-84
2021/11/05 01:34:05;;;;;;;3.43;1.57;;;;;;;6.24;nan;99913.72;4957816;28;20049;-86
2021/11/05 01:36:32;;;;;;;2.83;1.40;;;;;;;6.24;nan;99922.47;4945062;28;20508;-84
2021/11/05 01:38:59;;;;;;;2.87;1.50;;;;;;;6.24;nan;99932.09;4929737;29;20069;-86
2021/11/05 01:41:26;;;;;;;2.83;1.70;;;;;;;6.21;nan;99936.47;4955646;28;20039;-83
2021/11/05 01:43:53;;;;;;;3.40;1.53;;;;;;;6.18;nan;99939.16;4929443;28;20089;-87
2021/11/05 01:46:20;;;;;;;3.57;1.60;;;;;;;6.24;nan;99946.06;4952651;28;20042;-85
2021/11/05 01:48:48;;;;;;;3.40;1.60;;;;;;;6.27;nan;99953.00;4930796;28;20049;-85
2021/11/05 01:51:15;;;;;;;2.60;1.33;;;;;;;6.26;nan;99967.03;4926904;28;20419;-83
2021/11/05 01:53:46;;;;;;;2.30;1.30;;;;;;;6.17;nan;99968.88;4957125;28;20065;-84
2021/11/05 01:56:18;;;;;;;3.30;1.73;;;;;;;6.28;nan;99971.34;4944203;28;20047;-84
2021/11/05 01:58:55;;;;;;;2.17;1.30;;;;;;;6.24;nan;99977.53;4914176;28;20049;-84
2021/11/05 02:01:22;;;;;;;1.83;1.20;;;;;;;6.24;nan;99981.94;4932845;28;20041;-84
2021/11/05 02:03:50;;;;;;;2.33;1.20;;;;;;;6.24;nan;99992.41;4947199;28;20035;-85
2021/11/05 02:06:21;;;;;;;1.97;1.37;;;;;;;6.19;nan;99995.94;4940804;28;20055;-84
2021/11/05 02:08:52;;;;;;;1.37;0.90;;;;;;;6.25;nan;100004.63;4948879;28;20057;-84
2021/11/05 02:11:20;;;;;;;2.77;1.40;;;;;;;6.14;nan;99996.91;4927394;28;20077;-84
2021/11/05 02:13:47;;;;;;;4.63;1.60;;;;;;;6.16;nan;100010.88;4924424;28;20035;-83
2021/11/05 02:16:14;;;;;;;1.20;0.90;;;;;;;6.20;nan;100008.19;4946748;28;20042;-83
2021/11/05 02:18:42;;;;;;;1.90;1.30;;;;;;;6.13;nan;100021.38;4951327;28;20043;-83
2021/11/05 02:21:15;;;;;;;2.47;1.27;;;;;;;6.14;nan;100010.91;4951432;28;20039;-82
2021/11/05 02:23:43;;;;;;;2.00;1.23;;;;;;;6.08;nan;100018.84;4921540;28;20039;-82
2021/11/05 02:26:10;;;;;;;3.00;1.13;;;;;;;6.08;nan;100029.31;4939830;28;20369;-82
2021/11/05 02:28:38;;;;;;;2.17;1.27;;;;;;;6.14;nan;100044.13;4952491;28;20041;-83
2021/11/05 02:31:06;;;;;;;2.30;1.30;;;;;;;6.11;nan;100047.63;4924795;28;20065;-82
2021/11/05 02:33:34;;;;;;;1.97;1.33;;;;;;;6.13;nan;100037.97;4951405;28;20039;-82
2021/11/05 02:36:01;;;;;;;1.57;1.27;;;;;;;6.16;nan;100053.69;4939965;28;20039;-83
2021/11/05 02:38:28;;;;;;;2.23;1.57;;;;;;;6.17;nan;100046.69;4942907;28;20046;-82
2021/11/05 02:40:55;;;;;;;3.67;2.13;;;;;;;6.20;nan;100049.28;4935956;28;20042;-83
2021/11/05 02:43:22;;;;;;;2.13;1.57;;;;;;;6.21;nan;100064.13;4969546;28;20035;-82
2021/11/05 02:45:53;;;;;;;4.30;1.60;;;;;;;6.21;nan;100061.50;4954534;28;20042;-82
2021/11/05 02:48:20;;;;;;;2.00;1.60;;;;;;;6.21;nan;100065.00;4948538;28;20041;-83
2021/11/05 02:50:48;;;;;;;2.67;2.10;;;;;;;6.23;nan;100075.47;4922374;28;20049;-82
2021/11/05 02:53:15;;;;;;;2.57;1.73;;;;;;;6.22;nan;100078.97;4924954;28;20035;-82
2021/11/05 02:55:42;;;;;;;3.10;1.70;;;;;;;6.21;nan;100080.72;4940214;28;20039;-83
2021/11/05 02:58:09;;;;;;;3.60;2.10;;;;;;;6.19;nan;100073.78;4926623;29;20416;-83
2021/11/05 03:00:36;;;;;;;3.03;2.00;;;;;;;6.29;nan;100078.00;4941069;28;20488;-82
2021/11/05 03:03:04;;;;;;;2.83;1.90;;;;;;;6.20;nan;100084.25;4931762;29;20035;-82
2021/11/05 03:05:31;;;;;;;2.77;2.10;;;;;;;6.18;nan;100085.16;4949579;28;20407;-82
2021/11/05 03:07:58;;;;;;;3.33;2.00;;;;;;;6.17;nan;100081.66;4945871;28;20046;-83
2021/11/05 03:10:25;;;;;;;3.00;1.87;;;;;;;6.24;nan;100082.47;4937658;28;20051;-82
2021/11/05 03:12:52;;;;;;;2.70;1.73;;;;;;;6.21;nan;100088.59;4938651;28;20042;-83
2021/11/05 03:15:19;;;;;;;2.07;1.47;;;;;;;6.27;nan;100094.66;4934567;29;20400;-82
2021/11/05 03:17:46;;;;;;;2.37;1.83;;;;;;;6.26;nan;100098.19;4916142;29;20496;-82
2021/11/05 03:20:13;;;;;;;2.90;1.53;;;;;;;6.26;nan;100103.44;4942010;28;20043;-82
2021/11/05 03:22:41;;;;;;;2.40;1.70;;;;;;;6.27;nan;100111.28;4919473;28;20051;-83
2021/11/05 03:25:08;;;;;;;3.37;1.53;;;;;;;6.19;nan;100118.38;4953800;28;20042;-82
2021/11/05 03:27:36;;;;;;;3.00;1.67;;;;;;;6.16;nan;100123.66;4959193;28;20045;-82
2021/11/05 03:30:04;;;;;;;3.37;1.70;;;;;;;6.29;nan;100125.22;4935955;28;20038;-82
2021/11/05 03:32:32;;;;;;;2.93;1.97;;;;;;;6.33;nan;100126.94;4925556;28;20035;-83
2021/11/05 03:34:59;;;;;;;3.27;1.53;;;;;;;6.30;nan;100123.47;4919786;29;20044;-84
2021/11/05 03:37:26;;;;;;;4.80;2.20;;;;;;;6.40;nan;100138.25;4919915;29;20048;-83
2021/11/05 03:39:53;;;;;;;2.30;1.90;;;;;;;6.37;nan;100135.63;4918454;28;20039;-82
2021/11/05 03:42:20;;;;;;;3.03;2.30;;;;;;;6.44;nan;100145.19;4922325;29;20423;-83
2021/11/05 03:44:46;;;;;;;3.53;2.23;;;;;;;6.43;nan;100146.94;4953860;28;20043;-82
2021/11/05 03:47:13;;;;;;;3.70;2.60;;;;;;;6.45;nan;100142.53;4954019;28;20524;-83
2021/11/05 03:49:40;;;;;;;4.50;2.37;;;;;;;6.40;nan;100151.38;4942283;28;20047;-82
2021/11/05 03:52:07;;;;;;;5.00;3.10;;;;;;;6.42;nan;100141.72;4926340;29;20130;-82
2021/11/05 03:54:34;;;;;;;4.17;3.33;;;;;;;6.46;nan;100146.88;4915599;28;20042;-82
2021/11/05 03:57:01;;;;;;;4.63;2.87;;;;;;;6.48;nan;100149.53;4961686;28;20476;-83
2021/11/05 03:59:28;;;;;;;3.63;2.50;;;;;;;6.46;nan;100165.25;4937230;29;20043;-82
2021/11/05 04:01:55;;;;;;;6.20;3.70;;;;;;;6.52;nan;100177.44;4920559;28;20053;-83
2021/11/05 04:04:22;;;;;;;5.57;3.70;;;;;;;6.52;nan;100176.59;4962650;28;20027;-81
2021/11/05 04:06:49;;;;;;;6.43;3.77;;;;;;;6.50;nan;100200.22;4944541;29;20095;-82
2021/11/05 04:09:16;;;;;;;5.97;3.20;;;;;;;6.45;nan;100202.88;4928434;29;20594;-82
2021/11/05 04:11:43;;;;;;;6.27;3.50;;;;;;;6.56;nan;100213.28;4936825;29;20106;-82
2021/11/05 04:14:10;;;;;;;6.00;4.10;;;;;;;6.54;nan;100215.03;4927562;29;20047;-82
2021/11/05 04:16:37;;;;;;;6.13;3.90;;;;;;;6.51;nan;100236.06;4940027;28;20124;-81
2021/11/05 04:19:04;;;;;;;5.87;4.37;;;;;;;6.55;nan;100240.38;4946328;28;20047;-83
2021/11/05 04:21:32;;;;;;;5.77;3.97;;;;;;;6.60;nan;100243.84;4946526;29;20123;-85
2021/11/05 04:24:01;;;;;;;7.80;5.37;;;;;;;6.69;nan;100242.88;4944745;29;20426;-81
2021/11/05 04:26:29;;;;;;;9.10;5.80;;;;;;;6.73;nan;100252.47;4933475;29;20099;-84
2021/11/05 04:28:56;;;;;;;13.73;8.83;;;;;;;6.69;nan;100259.50;4932092;28;20051;-83
2021/11/05 04:31:23;;;;;;;12.57;7.17;;;;;;;6.65;nan;100255.19;4935707;28;20471;-81
2021/11/05 04:33:51;;;;;;;10.90;6.50;;;;;;;6.64;nan;100276.16;4947184;28;20431;-81
2021/11/05 04:36:22;;;;;;;10.73;7.40;;;;;;;6.81;nan;100269.00;4955392;28;20094;-82
2021/11/05 04:38:50;;;;;;;11.77;7.37;;;;;;;6.73;nan;100276.97;4949494;28;20085;-81
2021/11/05 04:41:17;;;;;;;15.63;7.77;;;;;;;6.82;nan;100294.38;4959124;28;20109;-81
2021/11/05 04:43:44;;;;;;;12.13;7.33;;;;;;;6.81;nan;100302.25;4960096;28;20114;-81
2021/11/05 04:46:11;;;;;;;14.07;8.57;;;;;;;6.74;nan;100299.69;4944176;28;20129;-81
2021/11/05 04:48:38;;;;;;;13.77;8.33;;;;;;;6.86;nan;100305.69;4941889;28;20047;-81
2021/11/05 04:51:05;;;;;;;16.13;8.80;;;;;;;6.85;nan;100311.84;4955354;29;20115;-81
2021/11/05 04:53:33;;;;;;;14.77;8.73;;;;;;;6.81;nan;100312.75;4921281;28;20040;-81
2021/11/05 04:56:02;;;;;;;13.97;9.30;;;;;;;6.86;nan;100316.19;4967512;28;20483;-81
2021/11/05 04:58:29;;;;;;;16.87;10.57;;;;;;;6.89;nan;100314.41;4946323;28;20046;-82
2021/11/05 05:00:56;;;;;;;16.70;10.07;;;;;;;6.98;nan;100322.19;4951806;28;20038;-83
2021/11/05 05:03:23;;;;;;;15.67;9.37;;;;;;;6.96;nan;100310.81;4941291;28;20030;-83
2021/11/05 05:05:50;;;;;;;14.87;9.90;;;;;;;6.91;nan;100324.91;4943298;28;20045;-83
2021/11/05 05:08:17;;;;;;;14.60;9.53;;;;;;;6.92;nan;100324.88;4925779;28;20051;-83
2021/11/05 05:10:45;;;;;;;14.40;9.90;;;;;;;6.94;nan;100327.50;4953410;29;20046;-82
2021/11/05 05:13:11;;;;;;;22.10;12.17;;;;;;;7.00;nan;100330.94;4907516;29;20040;-83
2021/11/05 05:15:38;;;;;;;14.65;10.13;;;;;;;7.04;nan;100340.50;4935991;28;20046;-82
2021/11/05 05:18:05;;;;;;;15.63;10.40;;;;;;;7.08;nan;100335.22;4939236;28;20038;-85
2021/11/05 05:20:32;;;;;;;18.47;10.30;;;;;;;7.04;nan;100343.13;4939549;28;20038;-83
2021/11/05 05:22:59;;;;;;;16.95;10.50;;;;;;;7.06;nan;100345.72;4957985;28;20039;-83
2021/11/05 05:25:26;;;;;;;19.33;12.43;;;;;;;7.01;nan;100345.78;4939835;28;20042;-83
2021/11/05 05:27:54;;;;;;;19.80;10.97;;;;;;;7.04;nan;100358.00;4949011;28;20047;-84
2021/11/05 05:30:21;;;;;;;19.43;11.00;;;;;;;6.99;nan;100365.09;4955922;23;20058;-81
2021/11/05 05:32:49;;;;;;;19.73;11.40;;;;;;;6.97;nan;100362.47;4917179;29;20039;-82
2021/11/05 05:35:18;;;;;;;16.47;10.33;;;;;;;6.96;nan;100368.59;4901424;29;20040;-79
2021/11/05 05:37:45;;;;;;;21.20;10.90;;;;;;;7.02;nan;100367.66;4900521;29;20043;-80
2021/11/05 05:40:14;;;;;;;20.17;10.67;;;;;;;7.07;nan;100381.63;4902409;29;20039;-80
2021/11/05 05:42:42;;;;;;;20.00;11.87;;;;;;;7.03;nan;100375.53;4911288;29;20043;-81
2021/11/05 05:45:09;;;;;;;21.20;12.30;;;;;;;7.00;nan;100378.19;4887228;29;20047;-83
2021/11/05 05:47:38;;;;;;;22.10;12.00;;;;;;;7.01;nan;100392.19;4935037;29;20401;-81
2021/11/05 05:50:07;;;;;;;17.70;11.33;;;;;;;6.97;nan;100390.47;4897451;29;20070;-80
2021/11/05 05:52:34;;;;;;;18.70;10.50;;;;;;;6.95;nan;100393.13;4915835;29;20044;-81
2021/11/05 05:55:01;;;;;;;21.07;12.30;;;;;;;7.10;nan;100397.34;4934332;29;20036;-83
2021/11/05 05:57:28;;;;;;;20.83;10.97;;;;;;;6.96;nan;100402.75;4899243;29;20506;-83
2021/11/05 05:59:55;;;;;;;18.50;10.87;;;;;;;7.07;nan;100407.03;4882170;29;20515;-83
2021/11/05 06:02:22;;;;;;;20.97;12.37;;;;;;;6.98;nan;100408.00;4937207;29;20035;-83
2021/11/05 06:04:49;;;;;;;18.97;11.30;;;;;;;6.99;nan;100423.75;4911527;29;20044;-84
2021/11/05 06:07:16;;;;;;;15.50;10.63;;;;;;;7.03;nan;100437.69;4927423;29;20337;-84
2021/11/05 06:09:43;;;;;;;18.40;11.00;;;;;;;6.98;nan;100434.28;4909952;29;20131;-84
2021/11/05 06:12:10;;;;;;;21.43;10.87;;;;;;;7.03;nan;100441.19;4903378;29;20050;-85
2021/11/05 06:14:37;;;;;;;20.13;10.07;;;;;;;7.08;nan;100438.53;4916652;29;20044;-84
2021/11/05 06:17:04;;;;;;;20.20;11.17;;;;;;;7.06;nan;100448.16;4926641;29;20107;-84
2021/11/05 06:19:32;;;;;;;21.57;11.10;;;;;;;7.08;nan;100451.69;4925309;29;20441;-84
2021/11/05 06:21:59;;;;;;;18.67;11.33;;;;;;;7.04;nan;100457.81;4921582;29;20092;-84
2021/11/05 06:24:26;;;;;;;19.60;11.15;;;;;;;7.02;nan;100454.34;4922715;29;20107;-84
2021/11/05 06:26:53;;;;;;;18.03;11.10;;;;;;;7.01;nan;100466.63;4923053;29;20131;-81
2021/11/05 06:29:20;;;;;;;17.33;10.57;;;;;;;7.06;nan;100474.44;4905528;29;20044;-82
2021/11/05 06:31:47;;;;;;;17.87;10.43;;;;;;;7.00;nan;100482.41;4904649;29;20046;-84
2021/11/05 06:34:14;;;;;;;18.50;10.67;;;;;;;7.00;nan;100485.03;4885713;29;20047;-85
2021/11/05 06:36:41;;;;;;;19.43;11.07;;;;;;;6.97;nan;100495.53;4888285;29;20134;-81
2021/11/05 06:39:09;;;;;;;17.57;11.47;;;;;;;6.97;nan;100493.78;4916567;29;20044;-82
2021/11/05 06:41:36;;;;;;;22.30;11.93;;;;;;;6.96;nan;100505.16;4903125;29;20463;-82
2021/11/05 06:44:03;;;;;;;20.93;11.57;;;;;;;7.00;nan;100513.91;4927418;29;20050;-81
2021/11/05 06:46:30;;;;;;;19.57;11.70;;;;;;;6.88;nan;100519.25;4908774;29;20070;-81
2021/11/05 06:48:57;;;;;;;21.50;11.13;;;;;;;6.97;nan;100521.78;4885120;29;20051;-81
2021/11/05 06:51:24;;;;;;;19.47;13.40;;;;;;;6.91;nan;100535.00;4889975;29;20044;-82
2021/11/05 06:53:54;;;;;;;17.07;11.27;;;;;;;6.97;nan;100529.69;4898795;29;20543;-81
2021/11/05 06:56:22;;;;;;;15.67;9.83;;;;;;;6.98;nan;100539.31;4897465;29;20046;-82
2021/11/05 06:58:51;;;;;;;19.93;10.67;;;;;;;6.97;nan;100535.81;4883180;29;20044;-80
2021/11/05 07:01:18;;;;;;;18.30;10.70;;;;;;;6.95;nan;100540.19;4902519;29;20043;-81
2021/11/05 07:03:45;;;;;;;17.00;10.73;;;;;;;6.90;nan;100552.50;4900122;29;20042;-80
2021/11/05 07:06:12;;;;;;;17.00;9.83;;;;;;;7.02;nan;100552.41;4899576;29;20560;-81
2021/11/05 07:08:39;;;;;;;20.30;10.43;;;;;;;6.97;nan;100558.56;4903435;29;20799;-81
2021/11/05 07:11:06;;;;;;;17.27;10.67;;;;;;;6.97;nan;100558.56;4883414;29;20656;-80
2021/11/05 07:13:33;;;;;;;15.30;9.90;;;;;;;6.97;nan;100582.22;4890825;29;20062;-84
2021/11/05 07:16:02;;;;;;;17.03;10.33;;;;;;;6.94;nan;100588.34;4891586;29;20059;-81
2021/11/05 07:18:32;;;;;;;16.70;9.27;;;;;;;6.99;nan;100593.59;4885990;29;20052;-82
2021/11/05 07:21:03;;;;;;;15.97;9.70;;;;;;;6.93;nan;100604.13;4893747;29;20408;-83
2021/11/05 07:23:32;;;;;;;16.17;9.63;;;;;;;6.95;nan;100605.84;4902452;28;20050;-83
2021/11/05 07:26:01;;;;;;;16.77;9.87;;;;;;;6.99;nan;100610.22;4891874;29;20543;-85
2021/11/05 07:28:27;;;;;;;17.10;9.33;;;;;;;6.98;nan;100615.50;4900411;29;20047;-82
2021/11/05 07:30:55;;;;;;;17.00;9.73;;;;;;;7.03;nan;100622.44;4917468;29;20740;-82
2021/11/05 07:33:22;;;;;;;16.23;9.20;;;;;;;7.09;nan;100616.28;4899229;29;20036;-83
2021/11/05 07:35:49;;;;;;;17.80;10.03;;;;;;;7.05;nan;100632.94;4898991;29;20045;-82
2021/11/05 07:38:16;;;;;;;18.20;9.70;;;;;;;7.10;nan;100630.28;4914837;29;20044;-83
2021/11/05 07:40:42;;;;;;;14.30;8.53;;;;;;;7.15;nan;100637.28;4882939;29;20047;-83
2021/11/05 07:43:10;;;;;;;16.87;9.63;;;;;;;7.13;nan;100649.50;4891139;29;20062;-84
2021/11/05 07:45:37;;;;;;;14.38;8.65;;;;;;;7.09;nan;100654.81;4899333;29;20062;-83
2021/11/05 07:48:04;;;;;;;17.30;8.18;;;;;;;7.11;nan;100659.16;4901724;29;20040;-85
2021/11/05 07:50:33;;;;;;;12.57;8.20;;;;;;;7.11;nan;100663.56;4916370;29;20051;-83
2021/11/05 07:53:05;;;;;;;16.50;9.23;;;;;;;7.14;nan;100661.78;4886606;29;20497;-81
2021/11/05 07:55:33;;;;;;;14.17;8.53;;;;;;;7.19;nan;100667.00;4916444;29;20046;-83
2021/11/05 07:58:00;;;;;;;12.68;8.23;;;;;;;7.10;nan;100667.94;4901391;29;20035;-82
2021/11/05 08:00:27;;;;;;;14.82;9.15;;;;;;;7.04;nan;100671.47;4916317;29;20039;-84
2021/11/05 08:02:55;;;;;;;14.30;8.30;;;;;;;7.11;nan;100681.94;4886529;29;20054;-83
2021/11/05 08:05:22;;;;;;;15.10;8.30;;;;;;;7.08;nan;100695.97;4899613;29;20028;-84
2021/11/05 08:07:49;;;;;;;16.35;8.27;;;;;;;7.11;nan;100695.94;4897506;29;20055;-81
2021/11/05 08:10:20;;;;;;;14.33;8.90;;;;;;;7.23;nan;100702.88;4896365;29;20040;-85
2021/11/05 08:12:51;;;;;;;12.97;9.43;;;;;;;7.16;nan;100701.19;4899053;29;20109;-84
2021/11/05 08:15:20;;;;;;;15.70;8.10;;;;;;;7.13;nan;100709.06;4899909;29;20039;-83
2021/11/05 08:17:48;;;;;;;14.10;8.88;;;;;;;7.07;nan;100717.00;4896554;29;20453;-83
2021/11/05 08:20:15;;;;;;;14.13;8.37;;;;;;;7.08;nan;100718.75;4911137;29;20046;-83
2021/11/05 08:22:44;;;;;;;15.27;9.18;;;;;;;7.17;nan;100716.94;4901152;29;20043;-82
2021/11/05 08:25:12;;;;;;;12.13;7.75;;;;;;;7.10;nan;100717.84;4899638;29;20042;-83
2021/11/05 08:27:39;;;;;;;14.77;9.00;;;;;;;7.13;nan;100727.47;4916271;29;20044;-83
2021/11/05 08:30:11;;;;;;;15.88;8.63;;;;;;;7.10;nan;100735.38;4899369;29;20047;-81
2021/11/05 08:32:38;;;;;;;14.60;8.45;;;;;;;7.21;nan;100734.41;4916361;29;20039;-82
2021/11/05 08:35:07;;;;;;;13.05;7.70;;;;;;;7.18;nan;100746.72;4913977;29;20051;-83
2021/11/05 08:37:34;;;;;;;14.60;8.70;;;;;;;7.21;nan;100750.19;4885417;29;20046;-80
2021/11/05 08:40:03;;;;;;;13.33;8.10;;;;;;;7.19;nan;100744.06;4868643;29;20048;-81
2021/11/05 08:42:30;;;;;;;13.55;8.32;;;;;;;7.20;nan;100750.19;4900797;29;20044;-80
2021/11/05 08:44:57;;;;;;;12.88;7.97;;;;;;;7.29;nan;100758.03;4910340;29;20039;-84
2021/11/05 08:47:24;;;;;;;12.67;8.33;;;;;;;7.25;nan;100754.56;4901647;29;20048;-82
2021/11/05 08:49:53;;;;;;;14.75;8.88;;;;;;;7.29;nan;100760.66;4934030;29;20043;-82
2021/11/05 08:52:20;;;;;;;18.00;9.63;;;;;;;7.41;nan;100757.09;4920346;29;20048;-82
2021/11/05 08:54:47;;;;;;;20.20;10.35;;;;;;;7.49;nan;100769.31;4902620;29;20044;-84
2021/11/05 08:57:14;;;;;;;14.32;7.93;;;;;;;7.55;nan;100773.66;4903796;29;20506;-82
2021/11/05 08:59:42;;;;;;;10.82;7.38;;;;;;;7.50;nan;100776.31;4918487;29;20052;-84
2021/11/05 09:02:09;;;;;;;14.43;7.70;;;;;;;7.54;nan;100774.53;4896376;29;20048;-82
2021/11/05 09:04:36;;;;;;;10.47;7.57;;;;;;;7.53;nan;100776.28;4902866;29;20400;-84
2021/11/05 09:07:03;;;;;;;12.63;8.00;;;;;;;7.61;nan;100784.13;4903496;29;20050;-82
2021/11/05 09:09:30;;;;;;;11.75;7.00;;;;;;;7.63;nan;100787.63;4917940;29;20040;-84
2021/11/05 09:11:57;;;;;;;13.57;7.82;;;;;;;7.62;nan;100786.75;4901030;29;20050;-82
2021/11/05 09:14:24;;;;;;;11.32;5.75;;;;;;;7.59;nan;100796.44;4904118;29;20043;-83
2021/11/05 09:17:08;;;;;;;13.07;6.82;;;;;;;7.64;nan;100802.50;4910469;29;20040;-84
2021/11/05 09:19:35;;;;;;;11.43;6.32;;;;;;;7.65;nan;100800.75;4904566;29;20036;-83
2021/11/05 09:22:03;;;;;;;10.40;6.90;;;;;;;7.66;nan;100813.03;4891728;29;20066;-81
2021/11/05 09:24:30;;;;;;;12.88;7.10;;;;;;;7.70;nan;100815.63;4907077;29;20061;-82
2021/11/05 09:26:57;;;;;;;11.40;5.78;;;;;;;7.62;nan;100823.56;4908233;29;20569;-81
2021/11/05 09:29:24;;;;;;;8.27;5.60;;;;;;;7.69;nan;100821.78;4890464;29;20052;-80
2021/11/05 09:31:51;;;;;;;10.52;6.20;;;;;;;7.60;nan;100827.09;4907726;29;20046;-82
2021/11/05 09:34:18;;;;;;;12.70;6.80;;;;;;;7.61;nan;100828.84;4895544;29;20477;-80
2021/11/05 09:36:45;;;;;;;14.05;7.53;;;;;;;7.60;nan;100837.59;4884296;29;20044;-81
2021/11/05 09:39:12;;;;;;;10.95;6.35;;;;;;;7.69;nan;100847.19;4901667;29;20154;-81
2021/11/05 09:41:40;;;;;;;13.20;6.30;;;;;;;7.67;nan;100848.97;4887697;29;20058;-81
2021/11/05 09:44:06;;;;;;;11.13;5.82;;;;;;;7.69;nan;100849.81;4891688;29;20054;-80
2021/11/05 09:46:37;;;;;;;10.53;6.23;;;;;;;7.73;nan;100862.06;4913870;29;20047;-81
2021/11/05 09:49:04;;;;;;;7.10;4.88;;;;;;;7.71;nan;100863.84;4898809;29;20048;-80
2021/11/05 09:51:31;;;;;;;10.45;5.80;;;;;;;7.70;nan;100862.97;4902678;29;20056;-80
2021/11/05 09:54:02;;;;;;;8.73;4.85;;;;;;;7.76;nan;100869.97;4916986;29;20046;-81
2021/11/05 09:56:30;;;;;;;7.72;5.00;;;;;;;7.74;nan;100884.88;4904788;29;20053;-81
2021/11/05 09:58:57;;;;;;;6.88;4.22;;;;;;;7.78;nan;100882.19;4895792;29;20076;-80
2021/11/05 10:01:24;;;;;;;8.52;4.57;;;;;;;7.74;nan;100885.75;4918212;29;20048;-81
2021/11/05 10:03:51;;;;;;;8.32;4.47;;;;;;;7.73;nan;100891.88;4911934;29;20063;-84
2021/11/05 10:06:22;;;;;;;6.53;3.63;;;;;;;7.72;nan;100905.91;4915615;29;20061;-82
2021/11/05 10:08:51;;;;;;;6.63;3.30;;;;;;;7.78;nan;100905.00;4900046;29;20051;-83
2021/11/05 10:11:28;;;;;;;6.18;3.20;;;;;;;7.85;nan;100904.97;4902593;29;20501;-80
2021/11/05 10:13:56;;;;;;;7.90;3.28;;;;;;;7.76;nan;100907.66;4888131;29;20103;-80
2021/11/05 10:16:25;;;;;;;5.90;3.38;;;;;;;7.88;nan;100909.31;4909762;29;20044;-81
2021/11/05 10:19:06;;;;;;;4.22;2.90;;;;;;;7.74;nan;100919.94;4918535;29;20073;-81
2021/11/05 10:21:41;;;;;;;5.47;3.00;;;;;;;7.97;nan;100916.28;4902097;29;20043;-81
2021/11/05 10:24:20;;;;;;;4.38;3.13;;;;;;;7.84;nan;100929.53;4885252;29;20044;-80
2021/11/05 10:26:48;;;;;;;4.60;2.80;;;;;;;7.91;nan;100914.59;4886070;29;20047;-81
2021/11/05 10:29:44;;;;;;;4.88;2.60;;;;;;;7.89;nan;100933.00;4916163;29;20049;-81
2021/11/05 10:32:12;;;;;;;9.40;3.25;;;;;;;7.94;nan;100930.34;4898211;29;20062;-81
2021/11/05 10:34:49;;;;;;;5.90;2.90;;;;;;;7.89;nan;100933.00;4900444;29;20413;-81
2021/11/05 10:37:32;;;;;;;3.23;2.37;;;;;;;7.93;nan;100939.13;4901468;29;20047;-81
2021/11/05 10:40:00;;;;;;;5.05;2.40;;;;;;;7.97;nan;100937.34;4900581;29;20420;-83
2021/11/05 10:42:41;;;;;;;4.80;2.35;;;;;;;8.04;nan;100947.81;4888378;29;20047;-81
2021/11/05 10:45:21;;;;;;;5.68;2.50;;;;;;;8.02;nan;100954.00;4884772;29;20046;-81
2021/11/05 10:47:54;;;;;;;5.25;2.10;;;;;;;7.98;nan;100950.47;4916638;29;20565;-81
2021/11/05 10:50:34;;;;;;;3.28;1.98;;;;;;;7.92;nan;100958.44;4915925;29;20046;-81
2021/11/05 10:53:09;;;;;;;5.05;2.20;;;;;;;7.95;nan;100957.53;4898401;29;20039;-81
2021/11/05 10:55:48;;;;;;;3.03;2.30;;;;;;;8.04;nan;100957.47;4897424;29;20047;-82
2021/11/05 10:58:28;;;;;;;5.03;2.00;;;;;;;7.98;nan;100957.50;4915387;29;20040;-81
2021/11/05 11:01:04;;;;;;;3.58;2.10;;;;;;;8.04;nan;100971.50;4886435;29;20493;-81
2021/11/05 11:03:51;;;;;;;3.80;1.95;;;;;;;8.07;nan;100970.59;4915500;29;20519;-81
2021/11/05 11:06:25;;;;;;;2.45;1.80;;;;;;;8.02;nan;100968.00;4917200;29;20040;-82
2021/11/05 11:08:55;;;;;;;2.67;2.03;;;;;;;8.07;nan;100974.16;4915061;29;20047;-82
2021/11/05 11:11:23;;;;;;;3.45;2.10;;;;;;;8.02;nan;100981.19;4901549;29;20073;-81
2021/11/05 11:13:56;;;;;;;3.38;1.80;;;;;;;7.98;nan;100986.44;4919305;29;20049;-82
2021/11/05 11:16:28;;;;;;;3.15;1.90;;;;;;;8.16;nan;100983.75;4906025;29;20044;-81
2021/11/05 11:19:01;;;;;;;3.83;2.38;;;;;;;8.17;nan;100990.75;4899495;29;20039;-81
2021/11/05 11:21:34;;;;;;;2.40;1.45;;;;;;;8.17;nan;100986.38;4923467;29;20051;-80
2021/11/05 11:24:03;;;;;;;2.88;1.70;;;;;;;8.39;nan;100994.16;4918800;29;20497;-81
2021/11/05 11:26:31;;;;;;;2.50;1.73;;;;;;;8.28;nan;100996.81;4920018;29;20404;-81
2021/11/05 11:28:58;;;;;;;3.78;1.70;;;;;;;8.29;nan;100995.06;4917905;29;20047;-81
2021/11/05 11:31:25;;;;;;;5.22;2.25;;;;;;;8.35;nan;100998.56;4900978;29;20055;-82
2021/11/05 11:33:52;;;;;;;5.18;2.15;;;;;;;8.35;nan;101003.84;4880194;29;20050;-80
2021/11/05 11:36:21;;;;;;;3.00;1.90;;;;;;;8.44;nan;100995.88;4928468;29;20043;-81
2021/11/05 11:38:49;;;;;;;2.97;1.77;;;;;;;8.42;nan;101002.06;4899159;29;20775;-81
2021/11/05 11:41:17;;;;;;;2.08;1.38;;;;;;;8.32;nan;101006.44;5017049;23;20043;-81
2021/11/05 11:43:44;;;;;;;4.05;1.80;;;;;;;8.35;nan;101005.59;4953168;28;20048;-81
2021/11/05 11:46:11;;;;;;;3.67;1.65;;;;;;;8.27;nan;101012.63;4952386;29;20036;-81
2021/11/05 11:48:46;;;;;;;3.35;2.00;;;;;;;8.31;nan;101011.72;4934501;29;20043;-81
2021/11/05 11:51:32;;;;;;;2.65;2.00;;;;;;;8.37;nan;101017.88;4920898;29;20500;-81